Time;durP1;ratioP1;P1;durP2;ratioP2;P2;SDS_P1;SDS_P2;PMS_P1;PMS_P2;Temp;Humidity;BMP_temperature;BMP_pressure;BME280_temperature;BME280_humidity;BME280_pressure;Samples;Min_cycle;Max_cycle;Signal;HPM_P1;HPM_P2
2022/06/23 00:00:45;;;;;;;6.65;3.30;;;;;;;;;;5079159;28;20564;-75
2022/06/23 00:03:17;;;;;;;6.47;3.67;;;;;;;;;;5062703;28;20082;-75
2022/06/23 00:05:43;;;;;;;5.63;3.42;;;;;;;;;;5078667;28;20067;-75
2022/06/23 00:08:11;;;;;;;7.82;3.47;;;;;;;;;;5079689;28;20040;-75
2022/06/23 00:10:39;;;;;;;6.65;3.40;;;;;;;;;;5080899;28;20036;-76
2022/06/23 00:13:15;;;;;;;5.15;3.03;;;;;;;;;;5062142;28;20082;-75
2022/06/23 00:15:43;;;;;;;8.02;5.00;;;;;;;;;;5078260;28;20484;-75
2022/06/23 00:18:20;;;;;;;6.80;3.90;;;;;;;;;;5055511;28;20072;-74
2022/06/23 00:20:49;;;;;;;7.25;3.60;;;;;;;;;;5053677;28;20036;-75
2022/06/23 00:23:15;;;;;;;6.78;4.00;;;;;;;;;;5053735;28;20478;-75
2022/06/23 00:25:44;;;;;;;6.25;3.80;;;;;;;;;;5069985;28;20040;-75
2022/06/23 00:28:39;;;;;;;7.80;3.70;;;;;;;;;;5054031;28;20044;-75
2022/06/23 00:31:06;;;;;;;6.60;3.67;;;;;;;;;;5036898;28;20087;-75
2022/06/23 00:33:42;;;;;;;7.20;3.63;;;;;;;;;;5053775;28;20041;-76
2022/06/23 00:36:16;;;;;;;6.13;3.35;;;;;;;;;;5070425;28;20036;-76
2022/06/23 00:38:42;;;;;;;4.95;2.95;;;;;;;;;;5053414;28;20079;-76
2022/06/23 00:41:15;;;;;;;7.50;3.88;;;;;;;;;;5070292;28;20392;-75
2022/06/23 00:43:44;;;;;;;8.63;4.57;;;;;;;;;;5070542;28;20052;-75
2022/06/23 00:46:15;;;;;;;8.48;4.20;;;;;;;;;;5070383;28;20043;-74
2022/06/23 00:48:46;;;;;;;9.02;4.63;;;;;;;;;;5053822;28;20051;-75
2022/06/23 00:51:15;;;;;;;9.73;4.80;;;;;;;;;;5070220;28;20080;-75
2022/06/23 00:53:51;;;;;;;7.85;4.65;;;;;;;;;;5070413;28;20044;-75
2022/06/23 00:56:31;;;;;;;10.63;4.60;;;;;;;;;;5053680;28;20090;-75
2022/06/23 00:59:05;;;;;;;8.27;4.57;;;;;;;;;;5070476;28;20524;-75
2022/06/23 01:01:39;;;;;;;9.10;5.03;;;;;;;;;;5053635;28;20056;-75
2022/06/23 01:04:17;;;;;;;7.72;4.68;;;;;;;;;;5053300;28;20064;-75
2022/06/23 01:06:48;;;;;;;15.88;5.30;;;;;;;;;;5053461;28;20135;-75
2022/06/23 01:09:22;;;;;;;11.60;5.38;;;;;;;;;;5069951;28;20040;-76
2022/06/23 01:11:52;;;;;;;7.40;4.93;;;;;;;;;;5053312;28;20045;-75
2022/06/23 01:14:34;;;;;;;9.17;4.77;;;;;;;;;;5070207;28;20040;-75
2022/06/23 01:17:15;;;;;;;10.35;4.47;;;;;;;;;;5053250;28;20078;-75
2022/06/23 01:19:56;;;;;;;7.38;3.75;;;;;;;;;;5053084;28;20124;-75
2022/06/23 01:22:40;;;;;;;9.32;4.93;;;;;;;;;;5053246;28;20087;-75
2022/06/23 01:25:06;;;;;;;11.55;5.20;;;;;;;;;;5070105;28;20048;-75
2022/06/23 01:27:35;;;;;;;9.57;4.35;;;;;;;;;;5069769;28;20127;-75
2022/06/23 01:30:06;;;;;;;12.85;5.10;;;;;;;;;;5053110;28;20037;-76
2022/06/23 01:32:32;;;;;;;;;;;;;;;;;;5070231;28;20051;-74
2022/06/23 01:35:06;;;;;;;9.73;5.13;;;;;;;;;;5069680;28;20360;-75
2022/06/23 01:37:35;;;;;;;9.52;4.88;;;;;;;;;;5073783;28;20059;-75
2022/06/23 01:40:06;;;;;;;11.25;5.22;;;;;;;;;;5056860;28;20057;-75
2022/06/23 01:42:35;;;;;;;8.27;4.07;;;;;;;;;;5057383;28;20489;-75
2022/06/23 01:45:04;;;;;;;10.63;5.22;;;;;;;;;;5073596;28;20377;-75
2022/06/23 01:47:30;;;;;;;10.85;5.68;;;;;;;;;;5073716;28;20058;-75
2022/06/23 01:50:11;;;;;;;11.32;6.15;;;;;;;;;;5073566;28;20037;-75
2022/06/23 01:52:38;;;;;;;21.00;7.15;;;;;;;;;;5056791;28;20048;-75
2022/06/23 01:55:13;;;;;;;11.82;5.28;;;;;;;;;;5072975;28;20040;-74
2022/06/23 01:57:44;;;;;;;15.27;7.15;;;;;;;;;;5073585;28;20498;-75
2022/06/23 02:00:13;;;;;;;16.52;6.32;;;;;;;;;;5073633;28;20131;-75
2022/06/23 02:02:39;;;;;;;14.23;6.95;;;;;;;;;;5056581;28;20043;-75
2022/06/23 02:05:25;;;;;;;16.65;6.95;;;;;;;;;;5073167;28;20123;-76
2022/06/23 02:07:54;;;;;;;18.17;6.95;;;;;;;;;;5073367;28;20123;-75
2022/06/23 02:10:20;;;;;;;20.27;7.22;;;;;;;;;;5056349;28;20435;-75
2022/06/23 02:12:49;;;;;;;15.48;6.88;;;;;;;;;;5072997;28;20036;-75
2022/06/23 02:15:30;;;;;;;16.13;7.05;;;;;;;;;;5072920;28;20103;-75
2022/06/23 02:17:56;;;;;;;16.77;6.75;;;;;;;;;;5056556;28;20094;-74
2022/06/23 02:20:22;;;;;;;20.60;7.05;;;;;;;;;;5056557;28;20037;-75
2022/06/23 02:22:49;;;;;;;17.23;7.13;;;;;;;;;;5056063;28;20431;-75
2022/06/23 02:25:19;;;;;;;18.15;7.68;;;;;;;;;;5055989;28;20044;-75
2022/06/23 02:28:14;;;;;;;20.10;7.70;;;;;;;;;;5056138;28;20033;-75
2022/06/23 02:30:46;;;;;;;27.58;9.40;;;;;;;;;;5055639;28;20806;-74
2022/06/23 02:33:30;;;;;;;28.13;9.82;;;;;;;;;;5072874;28;20053;-75
2022/06/23 02:36:05;;;;;;;22.60;8.93;;;;;;;;;;5072847;28;20306;-75
2022/06/23 02:38:45;;;;;;;18.58;7.43;;;;;;;;;;5055568;28;20057;-74
2022/06/23 02:41:26;;;;;;;19.55;8.50;;;;;;;;;;5072622;28;20045;-75
2022/06/23 02:44:13;;;;;;;19.48;7.45;;;;;;;;;;5056147;28;20049;-74
2022/06/23 02:46:49;;;;;;;15.70;6.75;;;;;;;;;;5072017;28;20131;-75
2022/06/23 02:49:15;;;;;;;15.82;7.43;;;;;;;;;;5055576;28;20492;-76
2022/06/23 02:51:57;;;;;;;16.92;7.10;;;;;;;;;;5072206;28;20051;-76
2022/06/23 02:54:36;;;;;;;10.52;5.85;;;;;;;;;;5055770;28;20579;-76
2022/06/23 02:57:29;;;;;;;14.55;6.18;;;;;;;;;;5072653;28;20040;-75
2022/06/23 03:00:14;;;;;;;13.10;6.10;;;;;;;;;;5041895;28;20512;-76
2022/06/23 03:03:06;;;;;;;12.07;6.18;;;;;;;;;;5055402;28;20142;-75
2022/06/23 03:05:52;;;;;;;12.57;6.38;;;;;;;;;;5025358;28;20048;-75
2022/06/23 03:08:23;;;;;;;11.80;5.88;;;;;;;;;;5072151;28;20098;-74
2022/06/23 03:10:51;;;;;;;12.85;6.22;;;;;;;;;;5071770;28;20037;-75
2022/06/23 03:13:17;;;;;;;14.35;7.38;;;;;;;;;;5055289;28;20045;-74
2022/06/23 03:15:49;;;;;;;12.93;6.00;;;;;;;;;;5071953;28;20270;-75
2022/06/23 03:18:28;;;;;;;12.23;6.45;;;;;;;;;;5071803;28;20174;-75
2022/06/23 03:21:02;;;;;;;16.08;7.05;;;;;;;;;;5055156;28;20044;-75
2022/06/23 03:23:52;;;;;;;14.45;6.70;;;;;;;;;;5055046;28;20059;-75
2022/06/23 03:26:18;;;;;;;15.98;7.13;;;;;;;;;;5054985;28;20076;-76
2022/06/23 03:28:52;;;;;;;11.65;5.95;;;;;;;;;;5055298;28;20429;-75
2022/06/23 03:31:36;;;;;;;16.20;5.95;;;;;;;;;;5071401;28;20504;-75
2022/06/23 03:34:22;;;;;;;14.00;6.88;;;;;;;;;;5054957;28;20040;-75
2022/06/23 03:36:51;;;;;;;14.73;7.03;;;;;;;;;;5054647;28;20396;-75
2022/06/23 03:42:08;;;;;;;12.60;5.65;;;;;;;;;;5071597;28;20052;-75
2022/06/23 03:44:48;;;;;;;15.50;7.53;;;;;;;;;;5054698;28;20047;-75
2022/06/23 03:47:17;;;;;;;20.30;8.27;;;;;;;;;;5071384;28;20037;-75
2022/06/23 03:49:47;;;;;;;13.50;6.60;;;;;;;;;;5054771;28;20044;-75
2022/06/23 03:52:37;;;;;;;17.98;7.82;;;;;;;;;;5054351;28;20048;-75
2022/06/23 03:55:08;;;;;;;13.87;7.00;;;;;;;;;;5061444;28;20055;-75
2022/06/23 03:57:42;;;;;;;15.90;6.85;;;;;;;;;;5070964;28;20075;-75
2022/06/23 04:00:46;;;;;;;18.58;7.18;;;;;;;;;;5071134;28;20090;-76
2022/06/23 04:03:22;;;;;;;14.88;6.72;;;;;;;;;;4977845;28;20038;-75
2022/06/23 04:05:57;;;;;;;14.30;6.88;;;;;;;;;;4993688;28;20033;-75
2022/06/23 04:08:24;;;;;;;11.57;6.63;;;;;;;;;;5038306;28;20044;-75
2022/06/23 04:10:52;;;;;;;14.00;7.18;;;;;;;;;;5056518;28;20522;-76
2022/06/23 04:13:28;;;;;;;13.02;6.88;;;;;;;;;;5063621;28;20043;-76
2022/06/23 04:15:55;;;;;;;12.88;6.57;;;;;;;;;;5078489;28;20380;-75
2022/06/23 04:18:24;;;;;;;15.90;7.72;;;;;;;;;;5080180;28;20036;-76
2022/06/23 04:20:53;;;;;;;14.48;6.32;;;;;;;;;;5063964;28;20047;-76
2022/06/23 04:23:34;;;;;;;14.77;6.60;;;;;;;;;;5079332;28;20040;-76
2022/06/23 04:26:00;;;;;;;13.32;7.03;;;;;;;;;;5079111;28;20047;-76
2022/06/23 04:28:28;;;;;;;11.48;5.55;;;;;;;;;;5078942;28;20488;-76
2022/06/23 04:30:55;;;;;;;15.27;7.60;;;;;;;;;;5080403;28;20119;-76
2022/06/23 04:33:22;;;;;;;12.82;7.43;;;;;;;;;;5079565;28;20115;-76
2022/06/23 04:35:50;;;;;;;13.18;7.20;;;;;;;;;;5078515;28;20133;-76
2022/06/23 04:38:16;;;;;;;15.80;7.75;;;;;;;;;;5061460;28;20485;-76
2022/06/23 04:40:42;;;;;;;15.68;7.18;;;;;;;;;;5062497;28;20055;-76
2022/06/23 04:43:23;;;;;;;13.65;7.47;;;;;;;;;;5080641;28;20035;-76
2022/06/23 04:45:55;;;;;;;18.30;8.10;;;;;;;;;;5063070;28;20083;-75
2022/06/23 04:48:41;;;;;;;13.50;6.75;;;;;;;;;;5078923;28;20047;-75
2022/06/23 04:51:22;;;;;;;13.02;7.32;;;;;;;;;;5062577;28;20056;-75
2022/06/23 04:53:53;;;;;;;17.30;7.60;;;;;;;;;;5079891;28;20423;-76
2022/06/23 04:56:23;;;;;;;13.68;7.13;;;;;;;;;;5063224;28;20032;-76
2022/06/23 04:58:52;;;;;;;14.57;7.55;;;;;;;;;;5075796;28;20048;-75
2022/06/23 05:01:19;;;;;;;17.40;8.02;;;;;;;;;;5075094;28;20496;-76
2022/06/23 05:03:49;;;;;;;14.90;8.18;;;;;;;;;;5058286;28;20036;-75
2022/06/23 05:06:15;;;;;;;14.25;8.13;;;;;;;;;;5074589;28;20054;-75
2022/06/23 05:08:42;;;;;;;12.75;6.82;;;;;;;;;;5075662;28;20040;-75
2022/06/23 05:11:13;;;;;;;13.50;8.35;;;;;;;;;;5061923;28;20052;-76
2022/06/23 05:13:45;;;;;;;12.20;7.03;;;;;;;;;;5084986;28;20048;-76
2022/06/23 05:16:18;;;;;;;11.38;6.40;;;;;;;;;;5090649;28;20040;-76
2022/06/23 05:18:48;;;;;;;12.30;6.95;;;;;;;;;;5074356;28;20044;-75
2022/06/23 05:21:17;;;;;;;10.10;7.20;;;;;;;;;;5090911;28;20046;-76
2022/06/23 05:23:45;;;;;;;10.50;6.63;;;;;;;;;;5090973;28;20048;-76
2022/06/23 05:26:31;;;;;;;10.85;6.65;;;;;;;;;;5090306;28;20074;-76
2022/06/23 05:29:17;;;;;;;10.40;7.38;;;;;;;;;;5073779;28;20058;-76
2022/06/23 05:31:44;;;;;;;10.13;6.72;;;;;;;;;;5090253;28;20070;-75
2022/06/23 05:34:24;;;;;;;11.55;7.18;;;;;;;;;;5090598;28;20069;-75
2022/06/23 05:36:50;;;;;;;;;;;;;;;;;;5075397;28;20131;-76
2022/06/23 05:39:20;;;;;;;9.48;6.72;;;;;;;;;;5091408;28;20151;-76
2022/06/23 05:41:48;;;;;;;10.00;6.70;;;;;;;;;;5090769;28;20062;-76
2022/06/23 05:44:22;;;;;;;11.07;9.98;;;;;;;;;;5091042;28;20040;-75
2022/06/23 05:46:49;;;;;;;10.93;8.10;;;;;;;;;;5093049;28;20535;-76
2022/06/23 05:49:19;;;;;;;10.25;7.32;;;;;;;;;;5077087;28;20407;-75
2022/06/23 05:51:59;;;;;;;12.40;10.05;;;;;;;;;;5093775;28;20052;-75
2022/06/23 05:54:43;;;;;;;13.45;9.75;;;;;;;;;;5093685;28;20062;-76
2022/06/23 05:57:28;;;;;;;10.30;9.30;;;;;;;;;;5093538;28;20101;-75
2022/06/23 05:59:58;;;;;;;11.73;9.70;;;;;;;;;;5093793;28;20040;-75
2022/06/23 06:02:33;;;;;;;10.33;9.20;;;;;;;;;;5076658;28;20035;-75
2022/06/23 06:05:01;;;;;;;10.55;9.45;;;;;;;;;;5076669;28;20040;-74
2022/06/23 06:07:39;;;;;;;11.98;9.50;;;;;;;;;;5076422;28;20096;-76
2022/06/23 06:10:06;;;;;;;9.70;8.80;;;;;;;;;;5093308;28;20055;-76
2022/06/23 06:12:34;;;;;;;9.65;8.75;;;;;;;;;;5093160;28;20100;-75
2022/06/23 06:15:20;;;;;;;9.63;8.40;;;;;;;;;;5076223;28;20396;-76
2022/06/23 06:19:43;;;;;;;10.65;9.00;;;;;;;;;;5128710;27;20383;-75
2022/06/23 06:24:49;;;;;;;9.65;8.70;;;;;;;;;;5087883;27;20396;-75
2022/06/23 06:27:15;;;;;;;9.23;8.43;;;;;;;;;;5086488;28;20068;-75
2022/06/23 06:29:43;;;;;;;9.43;8.43;;;;;;;;;;5069562;28;20523;-74
2022/06/23 06:32:28;;;;;;;10.00;8.63;;;;;;;;;;5086318;28;20036;-75
2022/06/23 06:34:58;;;;;;;10.05;9.05;;;;;;;;;;5085059;28;20044;-74
2022/06/23 06:37:27;;;;;;;9.55;8.73;;;;;;;;;;5086317;28;20102;-75
2022/06/23 06:39:56;;;;;;;12.18;10.73;;;;;;;;;;5069856;28;20097;-75
2022/06/23 06:42:31;;;;;;;12.43;9.88;;;;;;;;;;5086263;28;20074;-75
2022/06/23 06:44:58;;;;;;;11.27;9.13;;;;;;;;;;5069243;28;20115;-74
2022/06/23 06:47:26;;;;;;;10.65;9.38;;;;;;;;;;5083217;28;20032;-76
2022/06/23 06:50:18;;;;;;;8.60;7.78;;;;;;;;;;5086249;28;20052;-76
2022/06/23 06:52:45;;;;;;;10.05;9.10;;;;;;;;;;5069932;28;20095;-76
2022/06/23 06:55:17;;;;;;;9.50;8.60;;;;;;;;;;5086152;28;20491;-76
2022/06/23 06:58:03;;;;;;;8.10;7.40;;;;;;;;;;5068279;28;20044;-74
2022/06/23 07:00:33;;;;;;;9.88;8.00;;;;;;;;;;5080132;28;20551;-76
2022/06/23 07:03:00;;;;;;;10.00;9.10;;;;;;;;;;5082319;28;20044;-76
2022/06/23 07:05:32;;;;;;;10.50;8.85;;;;;;;;;;5071272;28;20492;-76
2022/06/23 07:08:20;;;;;;;7.45;6.75;;;;;;;;;;5071641;28;20142;-76
2022/06/23 07:10:52;;;;;;;8.10;7.30;;;;;;;;;;5056569;28;20054;-76
2022/06/23 07:13:27;;;;;;;8.50;6.82;;;;;;;;;;5056409;28;20044;-76
2022/06/23 07:15:58;;;;;;;7.75;7.00;;;;;;;;;;5056238;28;20040;-75
2022/06/23 07:18:28;;;;;;;7.45;6.75;;;;;;;;;;5056498;28;20051;-76
2022/06/23 07:20:54;;;;;;;9.13;7.90;;;;;;;;;;5058299;28;20048;-74
2022/06/23 07:23:22;;;;;;;8.15;7.43;;;;;;;;;;5066717;28;20582;-76
2022/06/23 07:25:51;;;;;;;8.60;7.80;;;;;;;;;;5066307;28;20133;-76
2022/06/23 07:28:21;;;;;;;7.87;7.07;;;;;;;;;;5065900;28;20049;-76
2022/06/23 07:30:50;;;;;;;8.18;7.47;;;;;;;;;;5066244;28;20373;-77
2022/06/23 07:33:16;;;;;;;7.32;6.63;;;;;;;;;;5083227;28;20044;-75
2022/06/23 07:35:48;;;;;;;6.70;6.10;;;;;;;;;;5055344;28;20055;-75
2022/06/23 07:38:26;;;;;;;7.78;6.97;;;;;;;;;;5053178;28;20044;-76
2022/06/23 07:40:55;;;;;;;7.22;6.18;;;;;;;;;;5052646;28;20545;-75
2022/06/23 07:43:27;;;;;;;7.20;6.50;;;;;;;;;;5069229;28;20539;-76
2022/06/23 07:45:58;;;;;;;8.75;6.60;;;;;;;;;;5069278;28;20055;-76
2022/06/23 07:48:25;;;;;;;7.32;6.63;;;;;;;;;;5052678;28;20059;-76
2022/06/23 07:50:51;;;;;;;7.05;6.30;;;;;;;;;;5052394;28;20051;-76
2022/06/23 07:53:20;;;;;;;7.70;6.88;;;;;;;;;;5068970;28;20040;-77
2022/06/23 07:55:47;;;;;;;6.85;6.25;;;;;;;;;;5052884;28;20059;-76
2022/06/23 07:58:14;;;;;;;6.78;6.15;;;;;;;;;;5069481;28;20080;-75
2022/06/23 08:00:42;;;;;;;6.68;5.97;;;;;;;;;;5070748;28;20040;-76
2022/06/23 08:03:34;;;;;;;6.57;5.88;;;;;;;;;;5072405;28;20052;-76
2022/06/23 08:06:01;;;;;;;6.80;6.10;;;;;;;;;;5040712;28;20052;-75
2022/06/23 08:08:31;;;;;;;7.22;6.53;;;;;;;;;;5072489;28;20446;-75
2022/06/23 08:13:45;;;;;;;7.60;6.68;;;;;;;;;;5072570;28;20067;-76
2022/06/23 08:19:05;;;;;;;7.20;6.20;;;;;;;;;;5072591;28;20048;-76
2022/06/23 08:21:33;;;;;;;8.10;5.97;;;;;;;;;;5072141;28;20040;-76
2022/06/23 08:24:05;;;;;;;6.10;5.60;;;;;;;;;;5072344;28;20059;-75
2022/06/23 08:26:31;;;;;;;8.10;6.13;;;;;;;;;;5072797;28;20036;-76
2022/06/23 08:29:02;;;;;;;7.10;6.40;;;;;;;;;;5072385;28;20037;-76
2022/06/23 08:31:29;;;;;;;9.98;6.10;;;;;;;;;;5069053;28;20029;-76
2022/06/23 08:33:56;;;;;;;7.75;6.65;;;;;;;;;;5060519;28;20429;-76
2022/06/23 08:36:23;;;;;;;6.53;5.82;;;;;;;;;;5063091;28;20045;-76
2022/06/23 08:38:53;;;;;;;8.85;6.55;;;;;;;;;;5043609;28;20408;-74
2022/06/23 08:41:22;;;;;;;7.22;6.20;;;;;;;;;;5061518;28;20047;-75
2022/06/23 08:44:11;;;;;;;5.60;5.10;;;;;;;;;;5060938;28;20128;-77
2022/06/23 08:46:44;;;;;;;9.35;6.18;;;;;;;;;;5044507;28;20041;-76
2022/06/23 08:49:23;;;;;;;8.40;6.10;;;;;;;;;;5043325;28;20072;-76
2022/06/23 08:52:08;;;;;;;7.10;6.43;;;;;;;;;;5044902;28;20051;-76
2022/06/23 08:54:33;;;;;;;6.65;5.95;;;;;;;;;;5044434;28;20090;-76
2022/06/23 08:57:11;;;;;;;6.60;6.00;;;;;;;;;;5061602;28;20083;-75
2022/06/23 08:59:44;;;;;;;6.25;5.65;;;;;;;;;;5061385;28;20095;-75
2022/06/23 09:02:33;;;;;;;6.07;5.45;;;;;;;;;;5044073;28;20045;-74
2022/06/23 09:04:59;;;;;;;;;;;;;;;;;;5056113;28;20053;-74
2022/06/23 09:07:44;;;;;;;6.63;4.95;;;;;;;;;;5060493;28;19916;-76
2022/06/23 09:10:10;;;;;;;5.60;5.07;;;;;;;;;;5060255;28;20397;-76
2022/06/23 09:12:45;;;;;;;7.25;6.05;;;;;;;;;;5058972;28;20041;-76
2022/06/23 09:15:10;;;;;;;8.00;5.57;;;;;;;;;;5042971;28;20043;-75
2022/06/23 09:17:36;;;;;;;5.97;4.70;;;;;;;;;;5060590;28;20029;-76
2022/06/23 09:20:21;;;;;;;7.35;5.15;;;;;;;;;;5042377;28;20033;-75
2022/06/23 09:22:50;;;;;;;5.80;5.13;;;;;;;;;;5059425;28;20049;-75
2022/06/23 09:25:22;;;;;;;5.45;5.05;;;;;;;;;;5058814;28;20036;-75
2022/06/23 09:28:06;;;;;;;5.93;4.78;;;;;;;;;;5059445;28;20033;-74
2022/06/23 09:30:40;;;;;;;4.75;4.00;;;;;;;;;;5059990;28;20040;-76
2022/06/23 09:33:06;;;;;;;13.20;5.22;;;;;;;;;;5044035;28;20040;-76
2022/06/23 09:35:44;;;;;;;8.20;4.95;;;;;;;;;;5059715;28;20583;-74
2022/06/23 09:38:16;;;;;;;7.50;4.57;;;;;;;;;;5060017;28;20051;-75
2022/06/23 09:40:57;;;;;;;5.20;4.40;;;;;;;;;;5058507;28;20064;-74
2022/06/23 09:43:42;;;;;;;5.38;4.88;;;;;;;;;;5058657;28;20064;-75
2022/06/23 09:46:30;;;;;;;5.07;4.43;;;;;;;;;;5046530;28;20545;-75
2022/06/23 09:49:31;;;;;;;5.30;4.80;;;;;;;;;;5061001;28;20102;-74
2022/06/23 09:52:09;;;;;;;9.75;4.13;;;;;;;;;;4993781;28;20045;-74
2022/06/23 09:54:47;;;;;;;5.43;4.20;;;;;;;;;;5052667;28;20135;-74
2022/06/23 09:57:32;;;;;;;6.47;4.07;;;;;;;;;;5060889;28;20068;-73
2022/06/23 10:00:01;;;;;;;6.22;3.85;;;;;;;;;;5043562;28;20115;-75
2022/06/23 10:02:40;;;;;;;5.93;3.97;;;;;;;;;;5043605;28;20098;-76
2022/06/23 10:05:17;;;;;;;3.35;3.05;;;;;;;;;;5060095;28;20037;-74
2022/06/23 10:07:49;;;;;;;4.75;3.30;;;;;;;;;;5043330;28;20087;-75
2022/06/23 10:10:30;;;;;;;5.50;3.40;;;;;;;;;;5058376;28;20405;-74
2022/06/23 10:12:56;;;;;;;4.78;3.10;;;;;;;;;;5058785;28;20550;-74
2022/06/23 10:15:35;;;;;;;3.50;3.20;;;;;;;;;;5041821;28;20036;-75
2022/06/23 10:18:19;;;;;;;4.43;3.38;;;;;;;;;;5042881;28;20044;-74
2022/06/23 10:21:04;;;;;;;5.07;3.55;;;;;;;;;;5059589;28;20049;-75
2022/06/23 10:23:45;;;;;;;3.90;3.50;;;;;;;;;;5059512;28;20087;-75
2022/06/23 10:26:32;;;;;;;5.60;3.83;;;;;;;;;;5059639;28;20044;-76
2022/06/23 10:29:04;;;;;;;4.13;3.72;;;;;;;;;;5013343;28;20041;-76
2022/06/23 10:31:39;;;;;;;4.93;4.20;;;;;;;;;;5057857;28;20033;-75
2022/06/23 10:34:18;;;;;;;4.15;3.67;;;;;;;;;;5058325;28;20051;-75
2022/06/23 10:36:56;;;;;;;3.60;3.30;;;;;;;;;;5060748;28;20067;-76
2022/06/23 10:39:22;;;;;;;7.43;3.55;;;;;;;;;;5043828;28;20040;-76
2022/06/23 10:41:56;;;;;;;3.42;3.00;;;;;;;;;;5043357;28;20083;-75
2022/06/23 10:44:28;;;;;;;3.95;2.88;;;;;;;;;;5058738;28;20128;-75
2022/06/23 10:47:13;;;;;;;3.38;3.08;;;;;;;;;;5057743;28;20033;-74
2022/06/23 10:49:39;;;;;;;4.95;3.30;;;;;;;;;;5058960;28;20087;-72
2022/06/23 10:52:11;;;;;;;4.03;3.45;;;;;;;;;;5058130;28;20037;-74
2022/06/23 10:54:37;;;;;;;3.25;2.92;;;;;;;;;;5042918;28;20041;-72
2022/06/23 10:57:21;;;;;;;5.07;3.25;;;;;;;;;;5042967;28;20044;-75
2022/06/23 10:59:47;;;;;;;3.75;3.35;;;;;;;;;;5055767;28;20048;-74
2022/06/23 11:02:22;;;;;;;3.80;2.90;;;;;;;;;;5037326;28;20043;-75
2022/06/23 11:04:48;;;;;;;3.25;2.92;;;;;;;;;;5053829;28;20048;-74
2022/06/23 11:07:32;;;;;;;3.20;3.00;;;;;;;;;;5038953;28;20036;-74
2022/06/23 11:10:31;;;;;;;3.22;2.92;;;;;;;;;;5040517;28;20381;-74
2022/06/23 11:13:06;;;;;;;3.85;2.90;;;;;;;;;;5019861;28;20045;-75
2022/06/23 11:15:32;;;;;;;3.47;2.92;;;;;;;;;;5057033;28;20069;-74
2022/06/23 11:18:10;;;;;;;2.83;2.50;;;;;;;;;;5042227;28;20433;-75
2022/06/23 11:20:55;;;;;;;3.05;2.58;;;;;;;;;;5058548;28;20140;-77
2022/06/23 11:23:35;;;;;;;2.78;2.53;;;;;;;;;;5042437;28;20464;-74
2022/06/23 11:26:10;;;;;;;3.33;2.60;;;;;;;;;;5042820;28;20043;-75
2022/06/23 11:28:55;;;;;;;4.32;2.40;;;;;;;;;;5043052;28;20040;-76
2022/06/23 11:31:33;;;;;;;3.92;2.70;;;;;;;;;;5058339;28;20472;-75
2022/06/23 11:34:03;;;;;;;3.08;2.80;;;;;;;;;;5058282;28;20512;-75
2022/06/23 11:36:47;;;;;;;3.55;2.58;;;;;;;;;;5040520;28;20051;-74
2022/06/23 11:39:31;;;;;;;2.90;2.70;;;;;;;;;;5039480;28;20123;-76
2022/06/23 11:42:06;;;;;;;3.15;2.85;;;;;;;;;;5042390;28;20084;-75
2022/06/23 11:44:32;;;;;;;4.78;2.50;;;;;;;;;;5042496;28;20048;-75
2022/06/23 11:47:14;;;;;;;3.47;2.80;;;;;;;;;;5041201;28;20056;-75
2022/06/23 11:50:03;;;;;;;2.70;2.45;;;;;;;;;;5042404;28;20063;-75
2022/06/23 11:52:37;;;;;;;3.07;2.87;;;;;;;;;;5033776;28;20047;-75
2022/06/23 11:55:10;;;;;;;2.65;2.40;;;;;;;;;;5041391;28;20076;-75
2022/06/23 11:57:44;;;;;;;2.40;2.20;;;;;;;;;;5057267;28;20047;-76
2022/06/23 12:00:12;;;;;;;3.38;2.72;;;;;;;;;;5056812;28;20036;-76
2022/06/23 12:02:50;;;;;;;4.22;2.92;;;;;;;;;;5058050;28;20169;-75
2022/06/23 12:05:28;;;;;;;5.00;2.83;;;;;;;;;;5059014;28;20040;-74
2022/06/23 12:07:54;;;;;;;3.00;2.70;;;;;;;;;;5041935;28;20051;-75
2022/06/23 12:10:22;;;;;;;2.97;2.67;;;;;;;;;;5041299;28;20036;-74
2022/06/23 12:12:49;;;;;;;2.80;2.60;;;;;;;;;;5056622;28;20076;-75
2022/06/23 12:15:17;;;;;;;4.03;2.85;;;;;;;;;;5058257;28;20488;-75
2022/06/23 12:17:44;;;;;;;4.28;2.97;;;;;;;;;;5057887;28;20096;-74
2022/06/23 12:20:17;;;;;;;2.88;2.60;;;;;;;;;;5039692;28;20068;-75
2022/06/23 12:22:52;;;;;;;3.13;2.78;;;;;;;;;;5040285;28;20557;-74
2022/06/23 12:25:38;;;;;;;3.22;2.60;;;;;;;;;;5057249;28;20080;-75
2022/06/23 12:28:09;;;;;;;5.07;3.25;;;;;;;;;;5040295;28;20122;-75
2022/06/23 12:30:42;;;;;;;2.97;2.67;;;;;;;;;;5056857;28;20047;-75
2022/06/23 12:33:17;;;;;;;4.80;2.92;;;;;;;;;;5056557;28;20135;-74
2022/06/23 12:35:57;;;;;;;3.40;2.70;;;;;;;;;;5040061;28;20102;-76
2022/06/23 12:38:29;;;;;;;3.20;2.80;;;;;;;;;;5057566;28;20041;-75
2022/06/23 12:40:55;;;;;;;4.55;2.70;;;;;;;;;;5041313;28;20363;-75
2022/06/23 12:43:31;;;;;;;3.10;2.80;;;;;;;;;;5056977;28;20029;-74
2022/06/23 12:46:05;;;;;;;3.00;2.80;;;;;;;;;;5056349;28;20191;-75
2022/06/23 12:48:44;;;;;;;2.95;2.75;;;;;;;;;;5056159;28;20496;-74
2022/06/23 12:51:26;;;;;;;3.28;2.72;;;;;;;;;;5055357;28;20036;-74
2022/06/23 12:54:13;;;;;;;2.80;2.60;;;;;;;;;;5055750;28;20040;-75
2022/06/23 12:56:48;;;;;;;3.50;3.17;;;;;;;;;;5056797;28;20052;-76
2022/06/23 12:59:33;;;;;;;3.88;3.08;;;;;;;;;;5055910;28;20083;-75
2022/06/23 13:02:09;;;;;;;5.15;3.28;;;;;;;;;;5056407;28;20052;-73
2022/06/23 13:26:27;;;;;;;5.70;3.20;;;;;;;;;;5128628;27;20447;-70
2022/06/23 13:31:47;;;;;;;5.80;3.70;;;;;;;;;;5086198;27;20401;-69
2022/06/23 13:34:18;;;;;;;3.15;2.85;;;;;;;;;;5103314;28;20033;-69
2022/06/23 13:36:51;;;;;;;4.28;3.33;;;;;;;;;;5057561;28;20040;-70
2022/06/23 13:39:17;;;;;;;3.83;3.10;;;;;;;;;;5101958;28;20041;-68
2022/06/23 13:42:04;;;;;;;4.38;2.78;;;;;;;;;;5074456;28;20044;-68
2022/06/23 14:12:47;;;;;;;3.08;2.88;;;;;;;;;;5084221;27;20447;-35
2022/06/23 14:26:27;;;;;;;3.03;2.70;;;;;;;;;;5138236;27;1196889;-34
2022/06/23 14:29:02;;;;;;;3.03;2.78;;;;;;;;;;5153024;27;20047;-34
2022/06/23 14:31:32;;;;;;;2.83;2.60;;;;;;;;;;5155240;27;20038;-39
2022/06/23 14:36:00;;;;;;;3.35;3.05;;;;;;;;;;5084470;27;20443;-34
